sensor_id;sensor_type;location;lat;lon;timestamp;pressure;altitude;pressure_sealevel;temperature
69597;BMP180;70000;51.176;-115.568;2023-05-10T00:00:05;86321.80;;;32.94
69597;BMP180;70000;51.176;-115.568;2023-05-10T00:02:34;86325.40;;;32.60
69597;BMP180;70000;51.176;-115.568;2023-05-10T00:05:04;86323.40;;;32.20
69597;BMP180;70000;51.176;-115.568;2023-05-10T00:07:33;86326.00;;;32.34
69597;BMP180;70000;51.176;-115.568;2023-05-10T00:10:03;86330.40;;;32.30
69597;BMP180;70000;51.176;-115.568;2023-05-10T00:12:32;86332.20;;;31.54
69597;BMP180;70000;51.176;-115.568;2023-05-10T00:15:03;86332.00;;;30.52
69597;BMP180;70000;51.176;-115.568;2023-05-10T00:17:31;86333.20;;;29.66
69597;BMP180;70000;51.176;-115.568;2023-05-10T00:20:01;86328.40;;;28.66
69597;BMP180;70000;51.176;-115.568;2023-05-10T00:22:36;86331.40;;;27.64
69597;BMP180;70000;51.176;-115.568;2023-05-10T00:25:06;86333.40;;;26.82
69597;BMP180;70000;51.176;-115.568;2023-05-10T00:27:36;86332.00;;;26.80
69597;BMP180;70000;51.176;-115.568;2023-05-10T00:30:06;86331.40;;;26.18
69597;BMP180;70000;51.176;-115.568;2023-05-10T00:32:35;86332.80;;;25.40
69597;BMP180;70000;51.176;-115.568;2023-05-10T00:35:05;86335.00;;;24.58
69597;BMP180;70000;51.176;-115.568;2023-05-10T00:37:33;86336.80;;;23.80
69597;BMP180;70000;51.176;-115.568;2023-05-10T00:40:03;86335.20;;;23.18
69597;BMP180;70000;51.176;-115.568;2023-05-10T00:42:33;86334.00;;;22.52
69597;BMP180;70000;51.176;-115.568;2023-05-10T00:45:02;86337.00;;;21.86
69597;BMP180;70000;51.176;-115.568;2023-05-10T00:47:32;86334.20;;;21.28
69597;BMP180;70000;51.176;-115.568;2023-05-10T00:50:02;86338.20;;;20.58
69597;BMP180;70000;51.176;-115.568;2023-05-10T00:52:31;86333.00;;;20.08
69597;BMP180;70000;51.176;-115.568;2023-05-10T00:55:01;86333.20;;;19.60
69597;BMP180;70000;51.176;-115.568;2023-05-10T00:57:32;86327.40;;;19.14
69597;BMP180;70000;51.176;-115.568;2023-05-10T01:00:02;86327.60;;;18.76
69597;BMP180;70000;51.176;-115.568;2023-05-10T01:02:33;86326.60;;;18.40
69597;BMP180;70000;51.176;-115.568;2023-05-10T01:05:03;86324.80;;;18.20
69597;BMP180;70000;51.176;-115.568;2023-05-10T01:07:33;86322.60;;;18.00
69597;BMP180;70000;51.176;-115.568;2023-05-10T01:10:02;86321.60;;;18.00
69597;BMP180;70000;51.176;-115.568;2023-05-10T01:12:33;86325.60;;;18.10
69597;BMP180;70000;51.176;-115.568;2023-05-10T01:15:03;86324.20;;;18.12
69597;BMP180;70000;51.176;-115.568;2023-05-10T01:17:35;86324.40;;;18.10
69597;BMP180;70000;51.176;-115.568;2023-05-10T01:20:09;86322.60;;;18.00
69597;BMP180;70000;51.176;-115.568;2023-05-10T01:23:20;86324.20;;;17.90
69597;BMP180;70000;51.176;-115.568;2023-05-10T01:36:12;86337.80;;;16.66
69597;BMP180;70000;51.176;-115.568;2023-05-10T01:38:50;86342.20;;;16.40
69597;BMP180;70000;51.176;-115.568;2023-05-10T01:41:48;86348.60;;;16.10
69597;BMP180;70000;51.176;-115.568;2023-05-10T01:47:22;86364.00;;;15.34
69597;BMP180;70000;51.176;-115.568;2023-05-10T01:49:56;86357.40;;;15.24
69597;BMP180;70000;51.176;-115.568;2023-05-10T01:52:42;86362.80;;;15.00
69597;BMP180;70000;51.176;-115.568;2023-05-10T01:55:17;86367.60;;;14.80
69597;BMP180;70000;51.176;-115.568;2023-05-10T01:58:07;86369.40;;;14.60
69597;BMP180;70000;51.176;-115.568;2023-05-10T02:00:46;86372.20;;;14.40
69597;BMP180;70000;51.176;-115.568;2023-05-10T02:03:18;86375.80;;;14.20
69597;BMP180;70000;51.176;-115.568;2023-05-10T02:05:51;86380.80;;;14.02
69597;BMP180;70000;51.176;-115.568;2023-05-10T02:08:22;86384.20;;;13.80
69597;BMP180;70000;51.176;-115.568;2023-05-10T02:10:56;86388.00;;;13.70
69597;BMP180;70000;51.176;-115.568;2023-05-10T02:13:27;86390.40;;;13.60
69597;BMP180;70000;51.176;-115.568;2023-05-10T02:16:00;86392.80;;;13.50
69597;BMP180;70000;51.176;-115.568;2023-05-10T02:18:31;86398.00;;;13.40
69597;BMP180;70000;51.176;-115.568;2023-05-10T02:21:03;86398.40;;;13.30
69597;BMP180;70000;51.176;-115.568;2023-05-10T02:23:33;86397.20;;;13.20
69597;BMP180;70000;51.176;-115.568;2023-05-10T02:26:05;86398.40;;;13.00
69597;BMP180;70000;51.176;-115.568;2023-05-10T02:28:39;86402.60;;;12.90
69597;BMP180;70000;51.176;-115.568;2023-05-10T02:31:10;86405.20;;;12.78
69597;BMP180;70000;51.176;-115.568;2023-05-10T02:33:41;86407.60;;;12.70
69597;BMP180;70000;51.176;-115.568;2023-05-10T02:36:13;86415.40;;;12.60
69597;BMP180;70000;51.176;-115.568;2023-05-10T02:38:44;86418.80;;;12.50
69597;BMP180;70000;51.176;-115.568;2023-05-10T02:41:15;86414.40;;;12.40
69597;BMP180;70000;51.176;-115.568;2023-05-10T02:43:45;86424.60;;;12.30
69597;BMP180;70000;51.176;-115.568;2023-05-10T02:46:15;86424.40;;;12.20
69597;BMP180;70000;51.176;-115.568;2023-05-10T02:48:44;86427.80;;;12.00
69597;BMP180;70000;51.176;-115.568;2023-05-10T02:51:16;86429.40;;;11.80
69597;BMP180;70000;51.176;-115.568;2023-05-10T02:53:49;86433.00;;;11.60
69597;BMP180;70000;51.176;-115.568;2023-05-10T02:56:33;86432.20;;;11.58
69597;BMP180;70000;51.176;-115.568;2023-05-10T02:59:03;86436.40;;;11.40
69597;BMP180;70000;51.176;-115.568;2023-05-10T03:01:36;86439.00;;;11.30
69597;BMP180;70000;51.176;-115.568;2023-05-10T03:04:11;86441.40;;;11.20
69597;BMP180;70000;51.176;-115.568;2023-05-10T03:06:40;86439.80;;;11.10
69597;BMP180;70000;51.176;-115.568;2023-05-10T03:09:13;86444.60;;;11.10
69597;BMP180;70000;51.176;-115.568;2023-05-10T03:15:11;86451.60;;;10.98
69597;BMP180;70000;51.176;-115.568;2023-05-10T03:18:09;86453.20;;;10.80
69597;BMP180;70000;51.176;-115.568;2023-05-10T03:20:47;86458.00;;;10.70
69597;BMP180;70000;51.176;-115.568;2023-05-10T03:23:41;86458.80;;;10.70
69597;BMP180;70000;51.176;-115.568;2023-05-10T03:26:21;86462.80;;;10.68
69597;BMP180;70000;51.176;-115.568;2023-05-10T03:28:54;86467.20;;;10.60
69597;BMP180;70000;51.176;-115.568;2023-05-10T03:31:24;86475.80;;;10.60
69597;BMP180;70000;51.176;-115.568;2023-05-10T03:33:53;86478.00;;;10.60
69597;BMP180;70000;51.176;-115.568;2023-05-10T03:36:23;86479.00;;;10.56
69597;BMP180;70000;51.176;-115.568;2023-05-10T03:38:55;86480.00;;;10.58
69597;BMP180;70000;51.176;-115.568;2023-05-10T03:41:24;86484.20;;;10.50
69597;BMP180;70000;51.176;-115.568;2023-05-10T03:43:54;86487.80;;;10.50
69597;BMP180;70000;51.176;-115.568;2023-05-10T03:46:29;86491.40;;;10.50
69597;BMP180;70000;51.176;-115.568;2023-05-10T03:49:08;86493.80;;;10.40
69597;BMP180;70000;51.176;-115.568;2023-05-10T03:52:00;86503.00;;;10.30
69597;BMP180;70000;51.176;-115.568;2023-05-10T03:54:54;86506.00;;;10.20
69597;BMP180;70000;51.176;-115.568;2023-05-10T03:57:43;86505.60;;;10.20
69597;BMP180;70000;51.176;-115.568;2023-05-10T04:00:38;86507.40;;;10.20
69597;BMP180;70000;51.176;-115.568;2023-05-10T04:03:24;86507.00;;;10.12
69597;BMP180;70000;51.176;-115.568;2023-05-10T04:06:05;86504.40;;;10.10
69597;BMP180;70000;51.176;-115.568;2023-05-10T04:08:39;86503.60;;;10.10
69597;BMP180;70000;51.176;-115.568;2023-05-10T04:11:11;86505.60;;;10.10
69597;BMP180;70000;51.176;-115.568;2023-05-10T04:13:47;86515.40;;;10.10
69597;BMP180;70000;51.176;-115.568;2023-05-10T04:16:26;86511.40;;;10.10
69597;BMP180;70000;51.176;-115.568;2023-05-10T04:18:58;86512.20;;;10.00
69597;BMP180;70000;51.176;-115.568;2023-05-10T04:21:28;86510.80;;;10.00
69597;BMP180;70000;51.176;-115.568;2023-05-10T04:24:04;86515.60;;;10.00
69597;BMP180;70000;51.176;-115.568;2023-05-10T04:26:43;86515.20;;;9.90
69597;BMP180;70000;51.176;-115.568;2023-05-10T04:29:21;86514.00;;;9.90
69597;BMP180;70000;51.176;-115.568;2023-05-10T04:31:57;86510.40;;;9.90
69597;BMP180;70000;51.176;-115.568;2023-05-10T04:34:40;86513.40;;;9.90
69597;BMP180;70000;51.176;-115.568;2023-05-10T04:37:11;86514.20;;;9.86
69597;BMP180;70000;51.176;-115.568;2023-05-10T04:39:50;86517.20;;;9.80
69597;BMP180;70000;51.176;-115.568;2023-05-10T04:42:56;86515.00;;;9.80
69597;BMP180;70000;51.176;-115.568;2023-05-10T04:45:40;86515.80;;;9.80
69597;BMP180;70000;51.176;-115.568;2023-05-10T04:48:24;86519.20;;;9.70
69597;BMP180;70000;51.176;-115.568;2023-05-10T04:51:00;86517.00;;;9.70
69597;BMP180;70000;51.176;-115.568;2023-05-10T04:53:42;86512.80;;;9.70
69597;BMP180;70000;51.176;-115.568;2023-05-10T05:07:15;86511.00;;;9.70
69597;BMP180;70000;51.176;-115.568;2023-05-10T05:09:46;86513.20;;;9.70
69597;BMP180;70000;51.176;-115.568;2023-05-10T05:12:16;86512.00;;;9.70
69597;BMP180;70000;51.176;-115.568;2023-05-10T05:14:45;86514.20;;;9.68
69597;BMP180;70000;51.176;-115.568;2023-05-10T05:17:14;86513.40;;;9.64
69597;BMP180;70000;51.176;-115.568;2023-05-10T05:19:44;86510.00;;;9.60
69597;BMP180;70000;51.176;-115.568;2023-05-10T05:22:20;86508.60;;;9.60
69597;BMP180;70000;51.176;-115.568;2023-05-10T05:24:57;86512.80;;;9.56
69597;BMP180;70000;51.176;-115.568;2023-05-10T05:27:34;86510.00;;;9.50
69597;BMP180;70000;51.176;-115.568;2023-05-10T05:30:04;86509.60;;;9.50
69597;BMP180;70000;51.176;-115.568;2023-05-10T05:32:33;86504.00;;;9.46
69597;BMP180;70000;51.176;-115.568;2023-05-10T05:35:03;86502.60;;;9.40
69597;BMP180;70000;51.176;-115.568;2023-05-10T05:37:33;86505.80;;;9.40
69597;BMP180;70000;51.176;-115.568;2023-05-10T05:40:04;86501.60;;;9.30
69597;BMP180;70000;51.176;-115.568;2023-05-10T05:42:34;86511.80;;;9.30
69597;BMP180;70000;51.176;-115.568;2023-05-10T05:45:03;86507.40;;;9.30
69597;BMP180;70000;51.176;-115.568;2023-05-10T05:47:33;86511.00;;;9.30
69597;BMP180;70000;51.176;-115.568;2023-05-10T05:50:02;86507.60;;;9.22
69597;BMP180;70000;51.176;-115.568;2023-05-10T05:52:31;86511.40;;;9.20
69597;BMP180;70000;51.176;-115.568;2023-05-10T05:55:01;86516.20;;;9.14
69597;BMP180;70000;51.176;-115.568;2023-05-10T05:57:31;86510.40;;;9.10
69597;BMP180;70000;51.176;-115.568;2023-05-10T06:00:01;86510.40;;;9.10
69597;BMP180;70000;51.176;-115.568;2023-05-10T06:02:35;86508.60;;;9.06
69597;BMP180;70000;51.176;-115.568;2023-05-10T06:05:06;86507.80;;;9.00
69597;BMP180;70000;51.176;-115.568;2023-05-10T06:07:35;86513.40;;;9.00
69597;BMP180;70000;51.176;-115.568;2023-05-10T06:10:09;86509.40;;;9.00
69597;BMP180;70000;51.176;-115.568;2023-05-10T06:12:38;86505.80;;;8.92
69597;BMP180;70000;51.176;-115.568;2023-05-10T06:15:13;86508.60;;;8.90
69597;BMP180;70000;51.176;-115.568;2023-05-10T06:17:42;86508.80;;;8.90
69597;BMP180;70000;51.176;-115.568;2023-05-10T06:20:22;86512.40;;;8.90
69597;BMP180;70000;51.176;-115.568;2023-05-10T06:22:51;86512.40;;;8.80
69597;BMP180;70000;51.176;-115.568;2023-05-10T06:25:21;86512.40;;;8.80
69597;BMP180;70000;51.176;-115.568;2023-05-10T06:27:51;86512.40;;;8.80
69597;BMP180;70000;51.176;-115.568;2023-05-10T06:30:26;86515.80;;;8.80
69597;BMP180;70000;51.176;-115.568;2023-05-10T06:32:57;86510.20;;;8.70
69597;BMP180;70000;51.176;-115.568;2023-05-10T06:35:29;86508.40;;;8.70
69597;BMP180;70000;51.176;-115.568;2023-05-10T06:37:59;86509.80;;;8.68
69597;BMP180;70000;51.176;-115.568;2023-05-10T06:40:29;86513.00;;;8.60
69597;BMP180;70000;51.176;-115.568;2023-05-10T06:42:58;86508.00;;;8.60
69597;BMP180;70000;51.176;-115.568;2023-05-10T06:45:28;86512.60;;;8.60
69597;BMP180;70000;51.176;-115.568;2023-05-10T06:47:58;86515.00;;;8.50
69597;BMP180;70000;51.176;-115.568;2023-05-10T06:50:31;86513.40;;;8.50
69597;BMP180;70000;51.176;-115.568;2023-05-10T06:53:04;86515.60;;;8.50
69597;BMP180;70000;51.176;-115.568;2023-05-10T06:55:33;86519.20;;;8.50
69597;BMP180;70000;51.176;-115.568;2023-05-10T06:58:13;86519.40;;;8.48
69597;BMP180;70000;51.176;-115.568;2023-05-10T07:01:01;86521.20;;;8.40
69597;BMP180;70000;51.176;-115.568;2023-05-10T07:03:30;86520.40;;;8.40
69597;BMP180;70000;51.176;-115.568;2023-05-10T07:06:04;86523.40;;;8.40
69597;BMP180;70000;51.176;-115.568;2023-05-10T07:08:45;86520.20;;;8.40
69597;BMP180;70000;51.176;-115.568;2023-05-10T07:11:15;86520.20;;;8.40
69597;BMP180;70000;51.176;-115.568;2023-05-10T07:13:44;86519.80;;;8.40
69597;BMP180;70000;51.176;-115.568;2023-05-10T07:16:18;86520.80;;;8.40
69597;BMP180;70000;51.176;-115.568;2023-05-10T07:18:47;86522.00;;;8.40
69597;BMP180;70000;51.176;-115.568;2023-05-10T07:21:17;86521.60;;;8.36
69597;BMP180;70000;51.176;-115.568;2023-05-10T07:23:46;86526.20;;;8.30
69597;BMP180;70000;51.176;-115.568;2023-05-10T07:26:25;86521.60;;;8.30
69597;BMP180;70000;51.176;-115.568;2023-05-10T07:28:57;86519.20;;;8.30
69597;BMP180;70000;51.176;-115.568;2023-05-10T07:31:30;86516.60;;;8.30
69597;BMP180;70000;51.176;-115.568;2023-05-10T07:33:59;86515.20;;;8.24
69597;BMP180;70000;51.176;-115.568;2023-05-10T07:36:38;86512.20;;;8.20
69597;BMP180;70000;51.176;-115.568;2023-05-10T07:39:07;86512.60;;;8.20
69597;BMP180;70000;51.176;-115.568;2023-05-10T07:41:41;86513.00;;;8.10
69597;BMP180;70000;51.176;-115.568;2023-05-10T07:44:10;86511.00;;;8.10
69597;BMP180;70000;51.176;-115.568;2023-05-10T07:46:52;86509.20;;;8.08
69597;BMP180;70000;51.176;-115.568;2023-05-10T07:49:22;86501.20;;;8.00
69597;BMP180;70000;51.176;-115.568;2023-05-10T07:51:52;86506.00;;;8.00
69597;BMP180;70000;51.176;-115.568;2023-05-10T07:54:21;86505.60;;;7.90
69597;BMP180;70000;51.176;-115.568;2023-05-10T07:56:51;86505.80;;;7.90
69597;BMP180;70000;51.176;-115.568;2023-05-10T07:59:23;86506.20;;;7.80
69597;BMP180;70000;51.176;-115.568;2023-05-10T08:01:52;86510.20;;;7.80
69597;BMP180;70000;51.176;-115.568;2023-05-10T08:04:21;86510.40;;;7.80
69597;BMP180;70000;51.176;-115.568;2023-05-10T08:06:50;86512.80;;;7.80
69597;BMP180;70000;51.176;-115.568;2023-05-10T08:09:19;86513.00;;;7.90
69597;BMP180;70000;51.176;-115.568;2023-05-10T08:11:52;86517.40;;;7.90
69597;BMP180;70000;51.176;-115.568;2023-05-10T08:14:21;86516.40;;;7.90
69597;BMP180;70000;51.176;-115.568;2023-05-10T08:16:50;86513.80;;;7.90
69597;BMP180;70000;51.176;-115.568;2023-05-10T08:19:19;86515.60;;;8.00
69597;BMP180;70000;51.176;-115.568;2023-05-10T08:21:49;86521.40;;;8.00
69597;BMP180;70000;51.176;-115.568;2023-05-10T08:24:18;86517.60;;;8.00
69597;BMP180;70000;51.176;-115.568;2023-05-10T08:26:48;86515.40;;;8.00
69597;BMP180;70000;51.176;-115.568;2023-05-10T08:29:17;86518.40;;;8.00
69597;BMP180;70000;51.176;-115.568;2023-05-10T08:31:46;86521.40;;;8.00
69597;BMP180;70000;51.176;-115.568;2023-05-10T08:34:15;86519.80;;;8.02
69597;BMP180;70000;51.176;-115.568;2023-05-10T08:36:45;86521.20;;;8.08
69597;BMP180;70000;51.176;-115.568;2023-05-10T08:39:14;86518.20;;;8.10
69597;BMP180;70000;51.176;-115.568;2023-05-10T08:42:02;86525.00;;;8.10
69597;BMP180;70000;51.176;-115.568;2023-05-10T08:44:36;86523.80;;;8.10
69597;BMP180;70000;51.176;-115.568;2023-05-10T08:47:09;86525.60;;;8.10
69597;BMP180;70000;51.176;-115.568;2023-05-10T08:49:40;86519.60;;;8.10
69597;BMP180;70000;51.176;-115.568;2023-05-10T08:52:13;86523.60;;;8.10
69597;BMP180;70000;51.176;-115.568;2023-05-10T08:54:47;86518.00;;;8.10
69597;BMP180;70000;51.176;-115.568;2023-05-10T08:57:16;86517.20;;;8.10
69597;BMP180;70000;51.176;-115.568;2023-05-10T08:59:46;86515.20;;;8.10
69597;BMP180;70000;51.176;-115.568;2023-05-10T09:02:16;86520.00;;;8.10
69597;BMP180;70000;51.176;-115.568;2023-05-10T09:04:47;86518.80;;;8.10
69597;BMP180;70000;51.176;-115.568;2023-05-10T09:07:17;86521.20;;;8.06
69597;BMP180;70000;51.176;-115.568;2023-05-10T09:09:50;86516.80;;;8.08
69597;BMP180;70000;51.176;-115.568;2023-05-10T09:12:20;86518.20;;;8.02
69597;BMP180;70000;51.176;-115.568;2023-05-10T09:14:52;86514.80;;;8.00
69597;BMP180;70000;51.176;-115.568;2023-05-10T09:17:25;86519.00;;;8.04
69597;BMP180;70000;51.176;-115.568;2023-05-10T09:20:06;86520.00;;;8.02
69597;BMP180;70000;51.176;-115.568;2023-05-10T09:22:35;86517.20;;;8.10
69597;BMP180;70000;51.176;-115.568;2023-05-10T09:25:16;86517.00;;;8.10
69597;BMP180;70000;51.176;-115.568;2023-05-10T09:27:47;86515.20;;;8.10
69597;BMP180;70000;51.176;-115.568;2023-05-10T09:30:25;86517.40;;;8.10
69597;BMP180;70000;51.176;-115.568;2023-05-10T09:32:56;86517.00;;;8.08
69597;BMP180;70000;51.176;-115.568;2023-05-10T09:35:28;86520.00;;;8.08
69597;BMP180;70000;51.176;-115.568;2023-05-10T09:38:04;86517.80;;;8.08
69597;BMP180;70000;51.176;-115.568;2023-05-10T09:40:36;86511.20;;;8.06
69597;BMP180;70000;51.176;-115.568;2023-05-10T09:43:10;86510.80;;;8.10
69597;BMP180;70000;51.176;-115.568;2023-05-10T09:45:41;86511.00;;;8.00
69597;BMP180;70000;51.176;-115.568;2023-05-10T09:48:10;86506.00;;;8.00
69597;BMP180;70000;51.176;-115.568;2023-05-10T09:50:57;86505.00;;;8.00
69597;BMP180;70000;51.176;-115.568;2023-05-10T09:53:26;86504.00;;;8.00
69597;BMP180;70000;51.176;-115.568;2023-05-10T09:55:56;86509.00;;;8.00
69597;BMP180;70000;51.176;-115.568;2023-05-10T09:58:27;86509.00;;;8.00
69597;BMP180;70000;51.176;-115.568;2023-05-10T10:00:56;86508.00;;;8.00
69597;BMP180;70000;51.176;-115.568;2023-05-10T10:03:26;86505.60;;;7.98
69597;BMP180;70000;51.176;-115.568;2023-05-10T10:05:57;86508.60;;;8.00
69597;BMP180;70000;51.176;-115.568;2023-05-10T10:08:27;86509.00;;;8.00
69597;BMP180;70000;51.176;-115.568;2023-05-10T10:10:59;86506.20;;;8.00
69597;BMP180;70000;51.176;-115.568;2023-05-10T10:13:29;86511.20;;;8.00
69597;BMP180;70000;51.176;-115.568;2023-05-10T10:16:00;86520.00;;;8.00
69597;BMP180;70000;51.176;-115.568;2023-05-10T10:18:31;86515.60;;;8.00
69597;BMP180;70000;51.176;-115.568;2023-05-10T10:21:01;86522.60;;;8.00
69597;BMP180;70000;51.176;-115.568;2023-05-10T10:23:35;86519.40;;;8.00
69597;BMP180;70000;51.176;-115.568;2023-05-10T10:26:05;86512.20;;;8.00
69597;BMP180;70000;51.176;-115.568;2023-05-10T10:32:26;86520.60;;;7.98
69597;BMP180;70000;51.176;-115.568;2023-05-10T10:34:57;86526.20;;;7.92
69597;BMP180;70000;51.176;-115.568;2023-05-10T10:37:44;86525.00;;;7.90
69597;BMP180;70000;51.176;-115.568;2023-05-10T10:40:43;86523.40;;;7.90
69597;BMP180;70000;51.176;-115.568;2023-05-10T10:43:26;86522.00;;;7.90
69597;BMP180;70000;51.176;-115.568;2023-05-10T10:46:16;86519.60;;;7.90
69597;BMP180;70000;51.176;-115.568;2023-05-10T10:49:09;86518.60;;;7.90
69597;BMP180;70000;51.176;-115.568;2023-05-10T10:51:39;86526.60;;;7.90
69597;BMP180;70000;51.176;-115.568;2023-05-10T10:54:10;86526.80;;;7.90
69597;BMP180;70000;51.176;-115.568;2023-05-10T10:56:39;86528.80;;;7.90
69597;BMP180;70000;51.176;-115.568;2023-05-10T10:59:11;86521.40;;;7.90
69597;BMP180;70000;51.176;-115.568;2023-05-10T11:01:42;86529.60;;;7.82
69597;BMP180;70000;51.176;-115.568;2023-05-10T11:06:42;86527.40;;;7.88
69597;BMP180;70000;51.176;-115.568;2023-05-10T11:09:15;86531.40;;;7.90
69597;BMP180;70000;51.176;-115.568;2023-05-10T11:11:54;86536.60;;;7.90
69597;BMP180;70000;51.176;-115.568;2023-05-10T11:14:28;86540.60;;;7.90
69597;BMP180;70000;51.176;-115.568;2023-05-10T11:17:01;86540.80;;;7.88
69597;BMP180;70000;51.176;-115.568;2023-05-10T11:19:30;86544.60;;;7.90
69597;BMP180;70000;51.176;-115.568;2023-05-10T11:24:34;86544.60;;;7.90
69597;BMP180;70000;51.176;-115.568;2023-05-10T11:27:05;86541.80;;;7.90
69597;BMP180;70000;51.176;-115.568;2023-05-10T11:29:34;86539.00;;;7.90
69597;BMP180;70000;51.176;-115.568;2023-05-10T11:32:05;86541.80;;;7.90
69597;BMP180;70000;51.176;-115.568;2023-05-10T11:34:36;86537.40;;;7.90
69597;BMP180;70000;51.176;-115.568;2023-05-10T11:37:05;86541.20;;;7.90
69597;BMP180;70000;51.176;-115.568;2023-05-10T11:39:34;86544.60;;;7.90
69597;BMP180;70000;51.176;-115.568;2023-05-10T11:42:04;86543.80;;;7.88
69597;BMP180;70000;51.176;-115.568;2023-05-10T11:44:33;86544.20;;;7.90
69597;BMP180;70000;51.176;-115.568;2023-05-10T11:47:02;86548.00;;;7.82
69597;BMP180;70000;51.176;-115.568;2023-05-10T11:49:32;86547.80;;;7.80
69597;BMP180;70000;51.176;-115.568;2023-05-10T11:52:08;86547.80;;;7.80
69597;BMP180;70000;51.176;-115.568;2023-05-10T11:54:37;86548.60;;;7.80
69597;BMP180;70000;51.176;-115.568;2023-05-10T11:57:06;86550.40;;;7.80
69597;BMP180;70000;51.176;-115.568;2023-05-10T11:59:36;86550.00;;;7.80
69597;BMP180;70000;51.176;-115.568;2023-05-10T12:02:08;86547.80;;;7.80
69597;BMP180;70000;51.176;-115.568;2023-05-10T12:04:37;86551.80;;;7.80
69597;BMP180;70000;51.176;-115.568;2023-05-10T12:07:06;86551.20;;;7.80
69597;BMP180;70000;51.176;-115.568;2023-05-10T12:09:48;86549.40;;;7.74
69597;BMP180;70000;51.176;-115.568;2023-05-10T12:12:24;86553.40;;;7.70
69597;BMP180;70000;51.176;-115.568;2023-05-10T12:14:53;86552.00;;;7.70
69597;BMP180;70000;51.176;-115.568;2023-05-10T12:17:27;86552.40;;;7.70
69597;BMP180;70000;51.176;-115.568;2023-05-10T12:20:19;86553.20;;;7.70
69597;BMP180;70000;51.176;-115.568;2023-05-10T12:22:55;86550.00;;;7.70
69597;BMP180;70000;51.176;-115.568;2023-05-10T12:25:31;86554.60;;;7.68
69597;BMP180;70000;51.176;-115.568;2023-05-10T12:28:05;86551.60;;;7.68
69597;BMP180;70000;51.176;-115.568;2023-05-10T12:30:37;86555.60;;;7.60
69597;BMP180;70000;51.176;-115.568;2023-05-10T12:33:12;86553.60;;;7.60
69597;BMP180;70000;51.176;-115.568;2023-05-10T12:35:54;86556.00;;;7.60
69597;BMP180;70000;51.176;-115.568;2023-05-10T12:38:31;86554.00;;;7.60
69597;BMP180;70000;51.176;-115.568;2023-05-10T12:41:07;86555.60;;;7.60
69597;BMP180;70000;51.176;-115.568;2023-05-10T12:43:38;86561.40;;;7.60
69597;BMP180;70000;51.176;-115.568;2023-05-10T12:46:10;86560.00;;;7.60
69597;BMP180;70000;51.176;-115.568;2023-05-10T12:48:40;86555.60;;;7.60
69597;BMP180;70000;51.176;-115.568;2023-05-10T12:51:10;86554.40;;;7.60
69597;BMP180;70000;51.176;-115.568;2023-05-10T12:53:41;86554.60;;;7.60
69597;BMP180;70000;51.176;-115.568;2023-05-10T12:56:13;86550.60;;;7.60
69597;BMP180;70000;51.176;-115.568;2023-05-10T12:58:46;86555.60;;;7.60
69597;BMP180;70000;51.176;-115.568;2023-05-10T13:01:16;86555.00;;;7.60
69597;BMP180;70000;51.176;-115.568;2023-05-10T13:03:45;86556.00;;;7.60
69597;BMP180;70000;51.176;-115.568;2023-05-10T13:06:15;86558.80;;;7.66
69597;BMP180;70000;51.176;-115.568;2023-05-10T13:08:44;86558.40;;;7.68
69597;BMP180;70000;51.176;-115.568;2023-05-10T13:11:13;86561.40;;;7.70
69597;BMP180;70000;51.176;-115.568;2023-05-10T13:13:45;86563.80;;;7.70
69597;BMP180;70000;51.176;-115.568;2023-05-10T13:16:15;86562.20;;;7.70
69597;BMP180;70000;51.176;-115.568;2023-05-10T13:18:44;86563.60;;;7.80
69597;BMP180;70000;51.176;-115.568;2023-05-10T13:21:14;86562.40;;;7.80
69597;BMP180;70000;51.176;-115.568;2023-05-10T13:23:43;86567.60;;;7.80
69597;BMP180;70000;51.176;-115.568;2023-05-10T13:26:12;86569.00;;;7.88
69597;BMP180;70000;51.176;-115.568;2023-05-10T13:28:41;86566.80;;;7.90
69597;BMP180;70000;51.176;-115.568;2023-05-10T13:31:10;86572.40;;;7.90
69597;BMP180;70000;51.176;-115.568;2023-05-10T13:33:39;86576.80;;;7.90
69597;BMP180;70000;51.176;-115.568;2023-05-10T13:36:08;86576.80;;;7.90
69597;BMP180;70000;51.176;-115.568;2023-05-10T13:38:37;86570.20;;;7.90
69597;BMP180;70000;51.176;-115.568;2023-05-10T13:41:07;86573.60;;;7.90
69597;BMP180;70000;51.176;-115.568;2023-05-10T13:43:38;86575.00;;;7.90
69597;BMP180;70000;51.176;-115.568;2023-05-10T13:46:08;86578.00;;;7.98
69597;BMP180;70000;51.176;-115.568;2023-05-10T13:48:37;86573.40;;;8.00
69597;BMP180;70000;51.176;-115.568;2023-05-10T13:51:06;86569.80;;;8.00
69597;BMP180;70000;51.176;-115.568;2023-05-10T13:53:35;86568.80;;;8.00
69597;BMP180;70000;51.176;-115.568;2023-05-10T13:56:05;86566.20;;;8.10
69597;BMP180;70000;51.176;-115.568;2023-05-10T13:58:34;86566.80;;;8.10
69597;BMP180;70000;51.176;-115.568;2023-05-10T14:01:05;86567.00;;;8.16
69597;BMP180;70000;51.176;-115.568;2023-05-10T14:03:35;86571.80;;;8.20
69597;BMP180;70000;51.176;-115.568;2023-05-10T14:06:04;86573.20;;;8.20
69597;BMP180;70000;51.176;-115.568;2023-05-10T14:08:35;86573.60;;;8.28
69597;BMP180;70000;51.176;-115.568;2023-05-10T14:11:04;86573.40;;;8.30
69597;BMP180;70000;51.176;-115.568;2023-05-10T14:13:37;86576.20;;;8.34
69597;BMP180;70000;51.176;-115.568;2023-05-10T14:16:06;86580.60;;;8.40
69597;BMP180;70000;51.176;-115.568;2023-05-10T14:18:35;86576.20;;;8.42
69597;BMP180;70000;51.176;-115.568;2023-05-10T14:21:05;86579.20;;;8.50
69597;BMP180;70000;51.176;-115.568;2023-05-10T14:23:35;86581.20;;;8.60
69597;BMP180;70000;51.176;-115.568;2023-05-10T14:26:05;86582.80;;;8.70
69597;BMP180;70000;51.176;-115.568;2023-05-10T14:28:34;86578.80;;;8.70
69597;BMP180;70000;51.176;-115.568;2023-05-10T14:31:06;86579.00;;;8.80
69597;BMP180;70000;51.176;-115.568;2023-05-10T14:33:35;86578.60;;;8.90
69597;BMP180;70000;51.176;-115.568;2023-05-10T14:36:04;86574.40;;;8.90
69597;BMP180;70000;51.176;-115.568;2023-05-10T14:38:33;86580.40;;;9.00
69597;BMP180;70000;51.176;-115.568;2023-05-10T14:41:02;86581.40;;;9.10
69597;BMP180;70000;51.176;-115.568;2023-05-10T14:43:31;86580.80;;;9.24
69597;BMP180;70000;51.176;-115.568;2023-05-10T14:46:00;86577.80;;;9.36
69597;BMP180;70000;51.176;-115.568;2023-05-10T14:48:29;86581.20;;;9.50